sensor_id;sensor_type;location;lat;lon;timestamp;P1;durP1;ratioP1;P2;durP2;ratioP2
5569;SDS011;2808;51.240;6.794;2023-12-07T00:02:35;44.53;;;18.80;;
5569;SDS011;2808;51.240;6.794;2023-12-07T00:05:25;38.03;;;17.63;;
5569;SDS011;2808;51.240;6.794;2023-12-07T00:08:15;35.90;;;17.03;;
5569;SDS011;2808;51.240;6.794;2023-12-07T00:11:05;36.23;;;18.97;;
5569;SDS011;2808;51.240;6.794;2023-12-07T00:13:55;32.70;;;17.73;;
5569;SDS011;2808;51.240;6.794;2023-12-07T00:16:46;33.57;;;17.57;;
5569;SDS011;2808;51.240;6.794;2023-12-07T00:19:36;44.50;;;18.37;;
5569;SDS011;2808;51.240;6.794;2023-12-07T00:22:26;36.77;;;17.97;;
5569;SDS011;2808;51.240;6.794;2023-12-07T00:25:16;39.60;;;17.70;;
5569;SDS011;2808;51.240;6.794;2023-12-07T00:28:06;33.10;;;17.13;;
5569;SDS011;2808;51.240;6.794;2023-12-07T00:30:56;41.53;;;20.17;;
5569;SDS011;2808;51.240;6.794;2023-12-07T00:33:47;33.30;;;17.50;;
5569;SDS011;2808;51.240;6.794;2023-12-07T00:36:37;39.40;;;18.50;;
5569;SDS011;2808;51.240;6.794;2023-12-07T00:39:28;39.83;;;18.30;;
5569;SDS011;2808;51.240;6.794;2023-12-07T00:42:18;36.50;;;17.90;;
5569;SDS011;2808;51.240;6.794;2023-12-07T00:45:08;38.67;;;19.07;;
5569;SDS011;2808;51.240;6.794;2023-12-07T00:47:58;43.97;;;19.47;;
5569;SDS011;2808;51.240;6.794;2023-12-07T00:50:49;38.27;;;18.10;;
5569;SDS011;2808;51.240;6.794;2023-12-07T00:53:40;34.53;;;17.23;;
5569;SDS011;2808;51.240;6.794;2023-12-07T00:56:30;42.87;;;17.03;;
5569;SDS011;2808;51.240;6.794;2023-12-07T00:59:20;35.03;;;17.17;;
5569;SDS011;2808;51.240;6.794;2023-12-07T01:02:10;37.13;;;16.47;;
5569;SDS011;2808;51.240;6.794;2023-12-07T01:05:00;41.33;;;18.20;;
5569;SDS011;2808;51.240;6.794;2023-12-07T01:07:52;39.23;;;17.47;;
5569;SDS011;2808;51.240;6.794;2023-12-07T01:10:42;36.60;;;16.23;;
5569;SDS011;2808;51.240;6.794;2023-12-07T01:13:31;34.43;;;17.30;;
5569;SDS011;2808;51.240;6.794;2023-12-07T01:16:21;35.70;;;17.47;;
5569;SDS011;2808;51.240;6.794;2023-12-07T01:19:11;31.33;;;16.67;;
5569;SDS011;2808;51.240;6.794;2023-12-07T01:22:01;36.00;;;15.63;;
5569;SDS011;2808;51.240;6.794;2023-12-07T01:24:52;37.23;;;17.37;;
5569;SDS011;2808;51.240;6.794;2023-12-07T01:27:46;32.10;;;16.63;;
5569;SDS011;2808;51.240;6.794;2023-12-07T01:30:36;32.67;;;16.70;;
5569;SDS011;2808;51.240;6.794;2023-12-07T01:33:26;33.33;;;16.40;;
5569;SDS011;2808;51.240;6.794;2023-12-07T01:36:16;35.17;;;18.03;;
5569;SDS011;2808;51.240;6.794;2023-12-07T01:39:05;30.00;;;15.83;;
5569;SDS011;2808;51.240;6.794;2023-12-07T01:41:57;32.47;;;16.83;;
5569;SDS011;2808;51.240;6.794;2023-12-07T01:44:47;35.00;;;15.67;;
5569;SDS011;2808;51.240;6.794;2023-12-07T01:47:28;33.00;;;17.40;;
5569;SDS011;2808;51.240;6.794;2023-12-07T01:49:56;34.57;;;17.47;;
5569;SDS011;2808;51.240;6.794;2023-12-07T01:52:24;33.07;;;16.77;;
5569;SDS011;2808;51.240;6.794;2023-12-07T01:54:53;33.27;;;17.23;;
5569;SDS011;2808;51.240;6.794;2023-12-07T01:57:44;33.53;;;16.80;;
5569;SDS011;2808;51.240;6.794;2023-12-07T02:00:14;38.67;;;17.87;;
5569;SDS011;2808;51.240;6.794;2023-12-07T02:03:04;36.60;;;17.23;;
5569;SDS011;2808;51.240;6.794;2023-12-07T02:05:55;35.87;;;17.73;;
5569;SDS011;2808;51.240;6.794;2023-12-07T02:08:46;32.40;;;16.43;;
5569;SDS011;2808;51.240;6.794;2023-12-07T02:11:36;36.30;;;17.03;;
5569;SDS011;2808;51.240;6.794;2023-12-07T02:14:27;35.10;;;17.90;;
5569;SDS011;2808;51.240;6.794;2023-12-07T02:17:09;39.20;;;16.87;;
5569;SDS011;2808;51.240;6.794;2023-12-07T02:19:48;33.70;;;16.90;;
5569;SDS011;2808;51.240;6.794;2023-12-07T02:22:21;38.37;;;19.13;;
5569;SDS011;2808;51.240;6.794;2023-12-07T02:25:08;37.83;;;18.50;;
5569;SDS011;2808;51.240;6.794;2023-12-07T02:28:03;36.87;;;18.10;;
5569;SDS011;2808;51.240;6.794;2023-12-07T02:30:31;36.50;;;17.90;;
5569;SDS011;2808;51.240;6.794;2023-12-07T02:33:13;40.83;;;18.53;;
5569;SDS011;2808;51.240;6.794;2023-12-07T02:35:41;37.97;;;18.43;;
5569;SDS011;2808;51.240;6.794;2023-12-07T02:38:31;38.50;;;18.80;;
5569;SDS011;2808;51.240;6.794;2023-12-07T02:41:22;36.97;;;17.37;;
5569;SDS011;2808;51.240;6.794;2023-12-07T02:44:15;37.10;;;18.83;;
5569;SDS011;2808;51.240;6.794;2023-12-07T02:47:05;33.17;;;18.30;;
5569;SDS011;2808;51.240;6.794;2023-12-07T02:49:55;33.40;;;17.73;;
5569;SDS011;2808;51.240;6.794;2023-12-07T02:52:45;37.40;;;18.80;;
5569;SDS011;2808;51.240;6.794;2023-12-07T02:55:35;38.07;;;18.60;;
5569;SDS011;2808;51.240;6.794;2023-12-07T02:58:25;45.67;;;18.30;;
5569;SDS011;2808;51.240;6.794;2023-12-07T03:01:16;38.50;;;19.07;;
5569;SDS011;2808;51.240;6.794;2023-12-07T03:03:45;35.87;;;18.80;;
5569;SDS011;2808;51.240;6.794;2023-12-07T03:06:12;42.53;;;18.83;;
5569;SDS011;2808;51.240;6.794;2023-12-07T03:09:02;35.20;;;17.87;;
5569;SDS011;2808;51.240;6.794;2023-12-07T03:11:52;40.00;;;17.33;;
5569;SDS011;2808;51.240;6.794;2023-12-07T03:14:41;34.13;;;17.03;;
5569;SDS011;2808;51.240;6.794;2023-12-07T03:17:33;35.07;;;17.50;;
5569;SDS011;2808;51.240;6.794;2023-12-07T03:20:23;36.43;;;19.17;;
5569;SDS011;2808;51.240;6.794;2023-12-07T03:23:15;37.03;;;18.10;;
5569;SDS011;2808;51.240;6.794;2023-12-07T03:26:05;41.47;;;18.17;;
5569;SDS011;2808;51.240;6.794;2023-12-07T03:28:55;36.97;;;17.50;;
5569;SDS011;2808;51.240;6.794;2023-12-07T03:31:45;35.13;;;18.80;;
5569;SDS011;2808;51.240;6.794;2023-12-07T03:34:36;40.63;;;18.23;;
5569;SDS011;2808;51.240;6.794;2023-12-07T03:37:03;34.30;;;17.57;;
5569;SDS011;2808;51.240;6.794;2023-12-07T03:39:38;38.80;;;18.43;;
5569;SDS011;2808;51.240;6.794;2023-12-07T03:42:30;38.90;;;18.10;;
5569;SDS011;2808;51.240;6.794;2023-12-07T03:45:20;38.20;;;18.27;;
5569;SDS011;2808;51.240;6.794;2023-12-07T03:48:10;34.30;;;17.50;;
5569;SDS011;2808;51.240;6.794;2023-12-07T03:51:02;36.20;;;18.87;;
5569;SDS011;2808;51.240;6.794;2023-12-07T03:53:52;42.07;;;19.30;;
5569;SDS011;2808;51.240;6.794;2023-12-07T03:56:23;38.20;;;19.83;;
5569;SDS011;2808;51.240;6.794;2023-12-07T03:58:51;42.80;;;19.20;;
5569;SDS011;2808;51.240;6.794;2023-12-07T04:01:21;39.90;;;18.77;;
5569;SDS011;2808;51.240;6.794;2023-12-07T04:04:11;42.50;;;18.27;;
5569;SDS011;2808;51.240;6.794;2023-12-07T04:07:02;34.67;;;18.50;;
5569;SDS011;2808;51.240;6.794;2023-12-07T04:09:52;37.87;;;18.33;;
5569;SDS011;2808;51.240;6.794;2023-12-07T04:12:42;34.67;;;17.57;;
5569;SDS011;2808;51.240;6.794;2023-12-07T04:15:09;41.80;;;18.67;;
5569;SDS011;2808;51.240;6.794;2023-12-07T04:17:59;37.33;;;18.50;;
5569;SDS011;2808;51.240;6.794;2023-12-07T04:20:49;36.23;;;19.10;;
5569;SDS011;2808;51.240;6.794;2023-12-07T04:23:40;37.60;;;18.77;;
5569;SDS011;2808;51.240;6.794;2023-12-07T04:26:08;44.17;;;19.67;;
5569;SDS011;2808;51.240;6.794;2023-12-07T04:28:35;47.67;;;18.77;;
5569;SDS011;2808;51.240;6.794;2023-12-07T04:31:05;42.83;;;18.63;;
5569;SDS011;2808;51.240;6.794;2023-12-07T04:33:55;35.57;;;18.60;;
5569;SDS011;2808;51.240;6.794;2023-12-07T04:36:45;40.80;;;19.43;;
5569;SDS011;2808;51.240;6.794;2023-12-07T04:39:37;41.87;;;17.63;;
5569;SDS011;2808;51.240;6.794;2023-12-07T04:42:27;46.67;;;20.53;;
5569;SDS011;2808;51.240;6.794;2023-12-07T04:45:17;38.93;;;18.00;;
5569;SDS011;2808;51.240;6.794;2023-12-07T04:48:07;39.10;;;18.80;;
5569;SDS011;2808;51.240;6.794;2023-12-07T04:50:57;45.20;;;20.33;;
5569;SDS011;2808;51.240;6.794;2023-12-07T04:53:25;53.37;;;20.23;;
5569;SDS011;2808;51.240;6.794;2023-12-07T04:55:53;39.20;;;19.43;;
5569;SDS011;2808;51.240;6.794;2023-12-07T04:58:20;39.07;;;20.17;;
5569;SDS011;2808;51.240;6.794;2023-12-07T05:00:48;55.80;;;20.90;;
5569;SDS011;2808;51.240;6.794;2023-12-07T05:03:15;41.93;;;19.63;;
5569;SDS011;2808;51.240;6.794;2023-12-07T05:05:43;44.67;;;19.97;;
5569;SDS011;2808;51.240;6.794;2023-12-07T05:08:10;40.87;;;20.27;;
5569;SDS011;2808;51.240;6.794;2023-12-07T05:10:37;41.90;;;19.20;;
5569;SDS011;2808;51.240;6.794;2023-12-07T05:13:06;44.80;;;20.30;;
5569;SDS011;2808;51.240;6.794;2023-12-07T05:15:33;38.43;;;19.80;;
5569;SDS011;2808;51.240;6.794;2023-12-07T05:18:01;62.47;;;26.20;;
5569;SDS011;2808;51.240;6.794;2023-12-07T05:20:34;49.30;;;22.93;;
5569;SDS011;2808;51.240;6.794;2023-12-07T05:23:04;47.67;;;21.73;;
5569;SDS011;2808;51.240;6.794;2023-12-07T05:25:31;52.80;;;23.43;;
5569;SDS011;2808;51.240;6.794;2023-12-07T05:27:58;65.40;;;29.50;;
5569;SDS011;2808;51.240;6.794;2023-12-07T05:30:27;47.67;;;21.60;;
5569;SDS011;2808;51.240;6.794;2023-12-07T05:32:55;40.57;;;18.77;;
5569;SDS011;2808;51.240;6.794;2023-12-07T05:35:22;43.90;;;20.70;;
5569;SDS011;2808;51.240;6.794;2023-12-07T05:37:49;41.83;;;20.40;;
5569;SDS011;2808;51.240;6.794;2023-12-07T05:40:17;48.73;;;20.13;;
5569;SDS011;2808;51.240;6.794;2023-12-07T05:42:45;41.40;;;21.80;;
5569;SDS011;2808;51.240;6.794;2023-12-07T05:45:14;47.83;;;20.30;;
5569;SDS011;2808;51.240;6.794;2023-12-07T05:47:42;42.57;;;20.93;;
5569;SDS011;2808;51.240;6.794;2023-12-07T05:50:10;42.63;;;20.40;;
5569;SDS011;2808;51.240;6.794;2023-12-07T05:52:37;46.93;;;19.93;;
5569;SDS011;2808;51.240;6.794;2023-12-07T05:55:05;39.37;;;20.10;;
5569;SDS011;2808;51.240;6.794;2023-12-07T05:57:33;50.90;;;21.00;;
5569;SDS011;2808;51.240;6.794;2023-12-07T06:00:01;40.83;;;20.27;;
5569;SDS011;2808;51.240;6.794;2023-12-07T06:02:29;40.60;;;20.13;;
5569;SDS011;2808;51.240;6.794;2023-12-07T06:04:58;37.43;;;19.00;;
5569;SDS011;2808;51.240;6.794;2023-12-07T06:07:25;36.57;;;18.70;;
5569;SDS011;2808;51.240;6.794;2023-12-07T06:09:52;40.03;;;19.83;;
5569;SDS011;2808;51.240;6.794;2023-12-07T06:12:20;40.27;;;18.80;;
5569;SDS011;2808;51.240;6.794;2023-12-07T06:14:48;39.73;;;19.03;;
5569;SDS011;2808;51.240;6.794;2023-12-07T06:17:15;32.90;;;18.37;;
5569;SDS011;2808;51.240;6.794;2023-12-07T06:19:44;40.53;;;19.47;;
5569;SDS011;2808;51.240;6.794;2023-12-07T06:22:13;44.03;;;19.77;;
5569;SDS011;2808;51.240;6.794;2023-12-07T06:24:40;36.13;;;18.47;;
5569;SDS011;2808;51.240;6.794;2023-12-07T06:27:07;42.60;;;19.20;;
5569;SDS011;2808;51.240;6.794;2023-12-07T06:29:36;46.37;;;18.60;;
5569;SDS011;2808;51.240;6.794;2023-12-07T06:32:04;44.63;;;19.47;;
5569;SDS011;2808;51.240;6.794;2023-12-07T06:34:32;38.63;;;19.13;;
5569;SDS011;2808;51.240;6.794;2023-12-07T06:36:59;37.43;;;19.00;;
5569;SDS011;2808;51.240;6.794;2023-12-07T06:39:28;39.73;;;18.23;;
5569;SDS011;2808;51.240;6.794;2023-12-07T06:41:55;41.27;;;19.00;;
5569;SDS011;2808;51.240;6.794;2023-12-07T06:44:24;39.63;;;18.60;;
5569;SDS011;2808;51.240;6.794;2023-12-07T06:46:52;35.10;;;17.20;;
5569;SDS011;2808;51.240;6.794;2023-12-07T06:49:20;34.30;;;17.90;;
5569;SDS011;2808;51.240;6.794;2023-12-07T06:51:47;44.37;;;17.00;;
5569;SDS011;2808;51.240;6.794;2023-12-07T06:54:14;33.60;;;15.97;;
5569;SDS011;2808;51.240;6.794;2023-12-07T06:56:43;30.93;;;15.93;;
5569;SDS011;2808;51.240;6.794;2023-12-07T06:59:11;42.27;;;17.73;;
5569;SDS011;2808;51.240;6.794;2023-12-07T07:01:39;37.80;;;15.93;;
5569;SDS011;2808;51.240;6.794;2023-12-07T07:04:06;30.30;;;16.40;;
5569;SDS011;2808;51.240;6.794;2023-12-07T07:06:34;30.30;;;14.60;;
5569;SDS011;2808;51.240;6.794;2023-12-07T07:09:01;36.37;;;16.27;;
5569;SDS011;2808;51.240;6.794;2023-12-07T07:11:32;35.07;;;15.90;;
5569;SDS011;2808;51.240;6.794;2023-12-07T07:14:01;39.00;;;16.07;;
5569;SDS011;2808;51.240;6.794;2023-12-07T07:16:31;32.03;;;15.33;;
5569;SDS011;2808;51.240;6.794;2023-12-07T07:18:58;35.67;;;15.57;;
5569;SDS011;2808;51.240;6.794;2023-12-07T07:21:28;34.27;;;15.27;;
5569;SDS011;2808;51.240;6.794;2023-12-07T07:23:55;37.57;;;16.60;;
5569;SDS011;2808;51.240;6.794;2023-12-07T07:26:22;31.40;;;15.37;;
5569;SDS011;2808;51.240;6.794;2023-12-07T07:28:50;30.80;;;16.10;;
5569;SDS011;2808;51.240;6.794;2023-12-07T07:31:19;36.73;;;15.67;;
5569;SDS011;2808;51.240;6.794;2023-12-07T07:33:47;29.73;;;14.97;;
5569;SDS011;2808;51.240;6.794;2023-12-07T07:36:14;27.03;;;14.70;;
5569;SDS011;2808;51.240;6.794;2023-12-07T07:38:42;32.50;;;14.93;;
5569;SDS011;2808;51.240;6.794;2023-12-07T07:41:09;28.53;;;14.67;;
5569;SDS011;2808;51.240;6.794;2023-12-07T07:43:37;30.27;;;14.60;;
5569;SDS011;2808;51.240;6.794;2023-12-07T07:46:05;30.03;;;14.20;;
5569;SDS011;2808;51.240;6.794;2023-12-07T07:48:35;26.67;;;15.47;;
5569;SDS011;2808;51.240;6.794;2023-12-07T07:51:04;28.00;;;14.70;;
5569;SDS011;2808;51.240;6.794;2023-12-07T07:53:31;37.80;;;15.07;;
5569;SDS011;2808;51.240;6.794;2023-12-07T07:55:59;30.73;;;14.60;;
5569;SDS011;2808;51.240;6.794;2023-12-07T07:58:26;33.37;;;14.43;;
5569;SDS011;2808;51.240;6.794;2023-12-07T08:00:54;27.60;;;13.40;;
5569;SDS011;2808;51.240;6.794;2023-12-07T08:03:21;29.97;;;13.00;;
5569;SDS011;2808;51.240;6.794;2023-12-07T08:05:50;25.50;;;14.13;;
5569;SDS011;2808;51.240;6.794;2023-12-07T08:08:17;31.33;;;13.80;;
5569;SDS011;2808;51.240;6.794;2023-12-07T08:10:45;28.30;;;13.87;;
5569;SDS011;2808;51.240;6.794;2023-12-07T08:13:12;27.60;;;12.60;;
5569;SDS011;2808;51.240;6.794;2023-12-07T08:15:40;28.30;;;12.73;;
5569;SDS011;2808;51.240;6.794;2023-12-07T08:18:07;27.87;;;13.57;;
5569;SDS011;2808;51.240;6.794;2023-12-07T08:20:35;26.00;;;13.73;;
5569;SDS011;2808;51.240;6.794;2023-12-07T08:23:04;27.47;;;13.60;;
5569;SDS011;2808;51.240;6.794;2023-12-07T08:25:31;38.50;;;13.63;;
5569;SDS011;2808;51.240;6.794;2023-12-07T08:27:59;26.20;;;13.40;;
5569;SDS011;2808;51.240;6.794;2023-12-07T08:30:26;30.07;;;13.47;;
5569;SDS011;2808;51.240;6.794;2023-12-07T08:32:53;23.67;;;12.53;;
5569;SDS011;2808;51.240;6.794;2023-12-07T08:35:21;29.63;;;15.00;;
5569;SDS011;2808;51.240;6.794;2023-12-07T08:37:48;28.23;;;12.90;;
5569;SDS011;2808;51.240;6.794;2023-12-07T08:40:17;34.00;;;14.13;;
5569;SDS011;2808;51.240;6.794;2023-12-07T08:42:45;25.97;;;13.23;;
5569;SDS011;2808;51.240;6.794;2023-12-07T08:45:13;28.27;;;13.50;;
5569;SDS011;2808;51.240;6.794;2023-12-07T08:47:41;29.73;;;13.63;;
5569;SDS011;2808;51.240;6.794;2023-12-07T08:50:08;24.87;;;11.83;;
5569;SDS011;2808;51.240;6.794;2023-12-07T08:52:36;27.57;;;12.33;;
5569;SDS011;2808;51.240;6.794;2023-12-07T08:55:06;23.00;;;11.90;;
5569;SDS011;2808;51.240;6.794;2023-12-07T08:57:35;31.60;;;12.33;;
5569;SDS011;2808;51.240;6.794;2023-12-07T09:00:03;31.10;;;13.43;;
5569;SDS011;2808;51.240;6.794;2023-12-07T09:02:31;21.13;;;11.13;;
5569;SDS011;2808;51.240;6.794;2023-12-07T09:04:59;22.83;;;12.40;;
5569;SDS011;2808;51.240;6.794;2023-12-07T09:07:26;32.97;;;12.50;;
5569;SDS011;2808;51.240;6.794;2023-12-07T09:09:54;22.97;;;12.20;;
5569;SDS011;2808;51.240;6.794;2023-12-07T09:12:21;25.20;;;12.00;;
5569;SDS011;2808;51.240;6.794;2023-12-07T09:14:50;25.43;;;12.30;;
5569;SDS011;2808;51.240;6.794;2023-12-07T09:17:17;20.70;;;11.70;;
5569;SDS011;2808;51.240;6.794;2023-12-07T09:19:45;26.37;;;12.17;;
5569;SDS011;2808;51.240;6.794;2023-12-07T09:22:12;25.13;;;12.57;;
5569;SDS011;2808;51.240;6.794;2023-12-07T09:24:41;22.63;;;11.70;;
5569;SDS011;2808;51.240;6.794;2023-12-07T09:27:08;28.50;;;13.10;;
5569;SDS011;2808;51.240;6.794;2023-12-07T09:29:36;24.40;;;12.47;;
5569;SDS011;2808;51.240;6.794;2023-12-07T09:32:06;25.57;;;12.00;;
5569;SDS011;2808;51.240;6.794;2023-12-07T09:34:33;23.60;;;12.13;;
5569;SDS011;2808;51.240;6.794;2023-12-07T09:37:07;23.70;;;11.70;;
5569;SDS011;2808;51.240;6.794;2023-12-07T09:39:36;26.23;;;12.30;;
5569;SDS011;2808;51.240;6.794;2023-12-07T09:42:03;27.60;;;13.23;;
5569;SDS011;2808;51.240;6.794;2023-12-07T09:44:31;21.73;;;12.30;;
5569;SDS011;2808;51.240;6.794;2023-12-07T09:46:59;23.77;;;12.67;;
5569;SDS011;2808;51.240;6.794;2023-12-07T09:49:28;21.70;;;12.23;;
5569;SDS011;2808;51.240;6.794;2023-12-07T09:51:56;26.77;;;12.90;;
5569;SDS011;2808;51.240;6.794;2023-12-07T09:54:27;26.67;;;12.90;;
5569;SDS011;2808;51.240;6.794;2023-12-07T09:56:55;23.63;;;12.80;;
5569;SDS011;2808;51.240;6.794;2023-12-07T09:59:23;26.60;;;13.70;;
5569;SDS011;2808;51.240;6.794;2023-12-07T10:01:50;27.03;;;12.80;;
5569;SDS011;2808;51.240;6.794;2023-12-07T10:04:18;23.27;;;13.00;;
5569;SDS011;2808;51.240;6.794;2023-12-07T10:06:51;24.10;;;13.10;;
5569;SDS011;2808;51.240;6.794;2023-12-07T10:09:20;23.67;;;12.40;;
5569;SDS011;2808;51.240;6.794;2023-12-07T10:11:49;29.77;;;13.43;;
5569;SDS011;2808;51.240;6.794;2023-12-07T10:14:27;33.13;;;13.80;;
5569;SDS011;2808;51.240;6.794;2023-12-07T10:16:55;28.20;;;13.67;;
5569;SDS011;2808;51.240;6.794;2023-12-07T10:19:23;32.10;;;14.30;;
5569;SDS011;2808;51.240;6.794;2023-12-07T10:21:53;26.87;;;12.90;;
5569;SDS011;2808;51.240;6.794;2023-12-07T10:24:21;24.23;;;12.57;;
5569;SDS011;2808;51.240;6.794;2023-12-07T10:26:51;22.73;;;12.17;;
5569;SDS011;2808;51.240;6.794;2023-12-07T10:29:19;25.70;;;13.20;;
5569;SDS011;2808;51.240;6.794;2023-12-07T10:31:48;21.40;;;13.10;;
5569;SDS011;2808;51.240;6.794;2023-12-07T10:34:17;23.63;;;11.93;;
5569;SDS011;2808;51.240;6.794;2023-12-07T10:36:46;25.93;;;12.90;;
5569;SDS011;2808;51.240;6.794;2023-12-07T10:39:15;24.97;;;13.00;;
5569;SDS011;2808;51.240;6.794;2023-12-07T10:41:43;23.87;;;11.67;;
5569;SDS011;2808;51.240;6.794;2023-12-07T10:44:11;28.20;;;12.97;;
5569;SDS011;2808;51.240;6.794;2023-12-07T10:46:42;23.80;;;13.00;;
5569;SDS011;2808;51.240;6.794;2023-12-07T10:49:11;33.30;;;11.93;;
5569;SDS011;2808;51.240;6.794;2023-12-07T10:51:45;24.90;;;12.60;;
5569;SDS011;2808;51.240;6.794;2023-12-07T10:54:21;23.60;;;12.57;;
5569;SDS011;2808;51.240;6.794;2023-12-07T10:56:54;27.70;;;13.73;;
5569;SDS011;2808;51.240;6.794;2023-12-07T10:59:21;22.03;;;11.70;;
5569;SDS011;2808;51.240;6.794;2023-12-07T11:01:50;24.93;;;13.83;;
5569;SDS011;2808;51.240;6.794;2023-12-07T11:04:18;24.97;;;12.30;;
5569;SDS011;2808;51.240;6.794;2023-12-07T11:06:48;24.60;;;13.00;;
5569;SDS011;2808;51.240;6.794;2023-12-07T11:09:21;28.60;;;12.83;;
5569;SDS011;2808;51.240;6.794;2023-12-07T11:11:54;25.43;;;13.57;;
5569;SDS011;2808;51.240;6.794;2023-12-07T11:14:28;26.77;;;12.83;;
5569;SDS011;2808;51.240;6.794;2023-12-07T11:16:56;23.37;;;12.17;;
5569;SDS011;2808;51.240;6.794;2023-12-07T11:22:15;29.33;;;12.60;;
5569;SDS011;2808;51.240;6.794;2023-12-07T11:24:53;23.13;;;12.27;;
5569;SDS011;2808;51.240;6.794;2023-12-07T11:27:26;25.53;;;12.03;;
5569;SDS011;2808;51.240;6.794;2023-12-07T11:29:58;26.77;;;12.37;;
5569;SDS011;2808;51.240;6.794;2023-12-07T11:32:26;22.47;;;11.67;;
5569;SDS011;2808;51.240;6.794;2023-12-07T11:34:53;21.60;;;11.37;;
5569;SDS011;2808;51.240;6.794;2023-12-07T11:37:25;21.63;;;11.50;;
5569;SDS011;2808;51.240;6.794;2023-12-07T11:40:38;28.63;;;11.50;;
5569;SDS011;2808;51.240;6.794;2023-12-07T11:43:08;23.00;;;12.17;;
5569;SDS011;2808;51.240;6.794;2023-12-07T11:45:46;20.87;;;11.23;;
5569;SDS011;2808;51.240;6.794;2023-12-07T11:48:16;24.67;;;11.70;;
5569;SDS011;2808;51.240;6.794;2023-12-07T11:50:57;22.13;;;11.83;;
5569;SDS011;2808;51.240;6.794;2023-12-07T11:53:26;27.77;;;12.07;;
5569;SDS011;2808;51.240;6.794;2023-12-07T11:55:56;24.23;;;11.10;;
5569;SDS011;2808;51.240;6.794;2023-12-07T11:58:24;22.40;;;11.60;;
5569;SDS011;2808;51.240;6.794;2023-12-07T12:00:52;21.40;;;11.53;;
5569;SDS011;2808;51.240;6.794;2023-12-07T12:03:21;27.27;;;12.03;;
5569;SDS011;2808;51.240;6.794;2023-12-07T12:05:49;40.13;;;12.10;;
5569;SDS011;2808;51.240;6.794;2023-12-07T12:08:16;25.30;;;11.43;;
5569;SDS011;2808;51.240;6.794;2023-12-07T12:10:44;33.57;;;12.07;;
5569;SDS011;2808;51.240;6.794;2023-12-07T12:13:15;23.80;;;11.47;;
5569;SDS011;2808;51.240;6.794;2023-12-07T12:15:43;22.03;;;11.50;;
5569;SDS011;2808;51.240;6.794;2023-12-07T12:18:12;21.57;;;11.30;;
5569;SDS011;2808;51.240;6.794;2023-12-07T12:20:41;22.97;;;11.30;;
5569;SDS011;2808;51.240;6.794;2023-12-07T12:23:10;20.90;;;11.20;;
5569;SDS011;2808;51.240;6.794;2023-12-07T12:25:38;20.93;;;11.40;;
5569;SDS011;2808;51.240;6.794;2023-12-07T12:28:06;26.93;;;10.63;;
5569;SDS011;2808;51.240;6.794;2023-12-07T12:30:36;22.33;;;11.07;;
5569;SDS011;2808;51.240;6.794;2023-12-07T12:33:04;19.13;;;10.97;;
5569;SDS011;2808;51.240;6.794;2023-12-07T12:35:32;22.00;;;10.93;;
5569;SDS011;2808;51.240;6.794;2023-12-07T12:37:59;23.77;;;11.50;;
5569;SDS011;2808;51.240;6.794;2023-12-07T12:40:27;21.03;;;11.37;;
5569;SDS011;2808;51.240;6.794;2023-12-07T12:42:57;19.80;;;10.70;;
5569;SDS011;2808;51.240;6.794;2023-12-07T12:45:26;22.10;;;10.80;;
5569;SDS011;2808;51.240;6.794;2023-12-07T12:47:56;22.97;;;11.00;;
5569;SDS011;2808;51.240;6.794;2023-12-07T12:50:33;24.57;;;11.20;;
5569;SDS011;2808;51.240;6.794;2023-12-07T12:53:02;23.10;;;11.00;;
5569;SDS011;2808;51.240;6.794;2023-12-07T12:55:32;25.27;;;11.17;;
5569;SDS011;2808;51.240;6.794;2023-12-07T12:58:01;22.03;;;11.57;;
5569;SDS011;2808;51.240;6.794;2023-12-07T13:00:30;20.50;;;11.20;;
5569;SDS011;2808;51.240;6.794;2023-12-07T13:03:00;25.93;;;13.10;;
5569;SDS011;2808;51.240;6.794;2023-12-07T13:05:29;24.40;;;10.40;;
5569;SDS011;2808;51.240;6.794;2023-12-07T13:07:59;19.57;;;10.13;;
5569;SDS011;2808;51.240;6.794;2023-12-07T13:10:26;19.23;;;9.83;;
5569;SDS011;2808;51.240;6.794;2023-12-07T13:12:54;21.17;;;11.23;;
5569;SDS011;2808;51.240;6.794;2023-12-07T13:15:22;20.17;;;10.20;;
5569;SDS011;2808;51.240;6.794;2023-12-07T13:17:50;21.73;;;9.50;;
5569;SDS011;2808;51.240;6.794;2023-12-07T13:20:19;20.53;;;9.93;;
5569;SDS011;2808;51.240;6.794;2023-12-07T13:22:47;25.10;;;10.13;;
5569;SDS011;2808;51.240;6.794;2023-12-07T13:25:15;19.17;;;9.33;;
5569;SDS011;2808;51.240;6.794;2023-12-07T13:27:42;19.57;;;11.17;;
5569;SDS011;2808;51.240;6.794;2023-12-07T13:30:10;28.67;;;10.20;;
5569;SDS011;2808;51.240;6.794;2023-12-07T13:32:38;20.80;;;9.33;;
5569;SDS011;2808;51.240;6.794;2023-12-07T13:35:06;19.63;;;9.47;;
5569;SDS011;2808;51.240;6.794;2023-12-07T13:37:37;19.73;;;10.27;;
5569;SDS011;2808;51.240;6.794;2023-12-07T13:40:06;20.07;;;10.20;;
5569;SDS011;2808;51.240;6.794;2023-12-07T13:42:36;16.30;;;8.97;;
5569;SDS011;2808;51.240;6.794;2023-12-07T13:45:04;15.63;;;9.40;;
5569;SDS011;2808;51.240;6.794;2023-12-07T13:47:33;17.43;;;9.00;;
5569;SDS011;2808;51.240;6.794;2023-12-07T13:50:03;22.80;;;9.53;;
5569;SDS011;2808;51.240;6.794;2023-12-07T13:52:37;17.53;;;8.53;;
5569;SDS011;2808;51.240;6.794;2023-12-07T13:55:05;17.37;;;8.47;;
5569;SDS011;2808;51.240;6.794;2023-12-07T13:57:32;17.40;;;9.03;;
5569;SDS011;2808;51.240;6.794;2023-12-07T14:00:00;20.77;;;8.37;;
5569;SDS011;2808;51.240;6.794;2023-12-07T14:02:27;19.87;;;9.10;;
5569;SDS011;2808;51.240;6.794;2023-12-07T14:04:55;17.60;;;8.67;;
5569;SDS011;2808;51.240;6.794;2023-12-07T14:07:23;17.00;;;8.23;;
5569;SDS011;2808;51.240;6.794;2023-12-07T14:09:52;14.20;;;7.77;;
5569;SDS011;2808;51.240;6.794;2023-12-07T14:12:19;15.87;;;8.10;;
5569;SDS011;2808;51.240;6.794;2023-12-07T14:14:48;15.93;;;8.37;;
5569;SDS011;2808;51.240;6.794;2023-12-07T14:17:16;16.50;;;7.70;;
5569;SDS011;2808;51.240;6.794;2023-12-07T14:19:48;14.80;;;7.90;;
5569;SDS011;2808;51.240;6.794;2023-12-07T14:22:16;16.23;;;8.10;;
5569;SDS011;2808;51.240;6.794;2023-12-07T14:24:55;14.03;;;7.67;;
5569;SDS011;2808;51.240;6.794;2023-12-07T14:27:27;11.90;;;7.10;;
5569;SDS011;2808;51.240;6.794;2023-12-07T14:30:02;15.50;;;7.23;;
5569;SDS011;2808;51.240;6.794;2023-12-07T14:32:31;13.50;;;6.73;;
5569;SDS011;2808;51.240;6.794;2023-12-07T14:35:06;16.97;;;7.93;;
5569;SDS011;2808;51.240;6.794;2023-12-07T14:37:38;15.43;;;7.50;;
5569;SDS011;2808;51.240;6.794;2023-12-07T14:40:14;19.30;;;7.50;;
5569;SDS011;2808;51.240;6.794;2023-12-07T14:42:50;14.87;;;7.30;;
5569;SDS011;2808;51.240;6.794;2023-12-07T14:45:20;11.97;;;7.20;;
5569;SDS011;2808;51.240;6.794;2023-12-07T14:47:49;14.87;;;7.80;;
5569;SDS011;2808;51.240;6.794;2023-12-07T14:50:17;12.87;;;7.03;;
5569;SDS011;2808;51.240;6.794;2023-12-07T14:52:59;13.33;;;7.50;;
5569;SDS011;2808;51.240;6.794;2023-12-07T14:58:30;16.57;;;7.53;;
5569;SDS011;2808;51.240;6.794;2023-12-07T15:01:00;13.87;;;7.00;;
5569;SDS011;2808;51.240;6.794;2023-12-07T15:03:31;17.00;;;7.70;;
5569;SDS011;2808;51.240;6.794;2023-12-07T15:06:01;16.90;;;7.90;;
5569;SDS011;2808;51.240;6.794;2023-12-07T15:08:32;12.77;;;7.67;;
5569;SDS011;2808;51.240;6.794;2023-12-07T15:11:29;17.07;;;8.37;;
5569;SDS011;2808;51.240;6.794;2023-12-07T15:14:50;15.63;;;8.00;;
5569;SDS011;2808;51.240;6.794;2023-12-07T15:17:34;15.50;;;7.63;;
5569;SDS011;2808;51.240;6.794;2023-12-07T15:20:11;17.67;;;8.30;;
5569;SDS011;2808;51.240;6.794;2023-12-07T15:22:39;16.53;;;7.70;;
5569;SDS011;2808;51.240;6.794;2023-12-07T15:25:42;15.90;;;8.03;;
5569;SDS011;2808;51.240;6.794;2023-12-07T15:28:10;19.53;;;7.10;;
5569;SDS011;2808;51.240;6.794;2023-12-07T15:30:40;13.93;;;7.20;;
5569;SDS011;2808;51.240;6.794;2023-12-07T15:33:09;17.83;;;10.37;;
5569;SDS011;2808;51.240;6.794;2023-12-07T15:35:36;19.87;;;7.50;;
5569;SDS011;2808;51.240;6.794;2023-12-07T15:38:05;18.00;;;7.47;;
5569;SDS011;2808;51.240;6.794;2023-12-07T15:40:34;17.33;;;7.30;;